Time;durP1;ratioP1;P1;durP2;ratioP2;P2;SDS_P1;SDS_P2;PMS_P1;PMS_P2;Temp;Humidity;BMP_temperature;BMP_pressure;BME280_temperature;BME280_humidity;BME280_pressure;Samples;Min_cycle;Max_cycle;Signal;HPM_P1;HPM_P2
2022/04/09 00:01:19;;;;;;;6.32;5.03;;;;;;;16.10;70.41;100594.22;5047761;28;20095;-80
2022/04/09 00:03:44;;;;;;;6.82;4.93;;;;;;;16.11;70.49;100593.38;5039030;28;20037;-81
2022/04/09 00:06:10;;;;;;;6.22;4.53;;;;;;;16.17;70.25;100595.28;5052313;28;20025;-81
2022/04/09 00:08:35;;;;;;;7.28;5.13;;;;;;;16.06;70.40;100576.53;5052201;28;20029;-80
2022/04/09 00:11:01;;;;;;;6.85;4.68;;;;;;;16.13;70.35;100583.78;5050311;28;20040;-80
2022/04/09 00:13:27;;;;;;;6.95;5.00;;;;;;;16.11;70.27;100577.56;5052224;28;20486;-80
2022/04/09 00:15:52;;;;;;;6.00;4.50;;;;;;;16.16;70.11;100583.84;5052207;28;20419;-80
2022/04/09 00:18:18;;;;;;;6.97;4.93;;;;;;;16.15;70.01;100592.63;5052331;28;20456;-80
2022/04/09 00:20:44;;;;;;;6.22;4.55;;;;;;;16.12;70.21;100579.34;5051483;28;20421;-80
2022/04/09 00:23:10;;;;;;;6.68;4.78;;;;;;;16.13;70.21;100567.06;5050208;28;20040;-80
2022/04/09 00:25:36;;;;;;;6.18;4.45;;;;;;;16.12;70.44;100576.72;5051952;28;20033;-80
2022/04/09 00:28:02;;;;;;;7.43;4.25;;;;;;;16.16;70.13;100567.16;5051956;28;20043;-79
2022/04/09 00:30:27;;;;;;;7.07;4.65;;;;;;;16.08;70.27;100553.75;5042171;28;20052;-80
2022/04/09 00:32:53;;;;;;;7.03;4.72;;;;;;;16.15;70.34;100566.28;5031922;28;20448;-80
2022/04/09 00:35:19;;;;;;;6.35;4.47;;;;;;;16.08;70.06;100557.28;5031738;28;20030;-79
2022/04/09 00:37:45;;;;;;;6.47;4.57;;;;;;;16.15;70.25;100568.00;5044084;28;20041;-80
2022/04/09 00:40:12;;;;;;;5.25;4.03;;;;;;;16.15;70.12;100583.78;5050688;28;20072;-80
2022/04/09 00:42:41;;;;;;;7.03;4.97;;;;;;;16.13;70.29;100567.06;5051517;28;20070;-80
2022/04/09 00:45:08;;;;;;;6.30;4.72;;;;;;;16.14;70.08;100560.94;5051437;28;20021;-80
2022/04/09 00:47:35;;;;;;;7.05;4.88;;;;;;;16.13;70.14;100560.06;5051648;28;20013;-80
2022/04/09 00:50:01;;;;;;;5.90;4.63;;;;;;;16.11;70.20;100561.75;5035528;28;20471;-80
2022/04/09 00:52:27;;;;;;;6.15;4.15;;;;;;;16.06;70.13;100539.66;5031704;28;20491;-80
2022/04/09 00:54:54;;;;;;;5.18;3.90;;;;;;;16.14;70.15;100558.31;5013882;28;20111;-80
2022/04/09 00:57:19;;;;;;;5.50;4.05;;;;;;;16.07;70.11;100541.44;5013958;28;20025;-80
2022/04/09 00:59:46;;;;;;;5.68;3.92;;;;;;;16.14;70.09;100555.69;5017814;28;20114;-79
2022/04/09 01:02:12;;;;;;;;;;;;;;;16.18;70.05;100554.91;5015559;28;20148;-80
2022/04/09 01:04:41;;;;;;;5.57;4.20;;;;;;;16.14;70.19;100559.19;5031318;28;19920;-80
2022/04/09 01:07:08;;;;;;;4.95;4.22;;;;;;;16.11;70.25;100547.69;5049643;28;20098;-80
2022/04/09 01:09:34;;;;;;;6.65;4.70;;;;;;;16.11;70.24;100548.59;5051271;28;20041;-80
2022/04/09 01:12:00;;;;;;;7.70;4.55;;;;;;;16.11;70.09;100547.69;5051335;28;20466;-81
2022/04/09 01:14:26;;;;;;;5.90;4.28;;;;;;;16.07;70.21;100544.97;5050906;28;20029;-80
2022/04/09 01:16:52;;;;;;;5.53;3.90;;;;;;;16.11;70.17;100556.50;5035416;28;20117;-81
2022/04/09 01:19:17;;;;;;;5.20;4.22;;;;;;;16.03;70.20;100552.75;5030769;28;20021;-81
2022/04/09 01:21:43;;;;;;;5.78;4.47;;;;;;;16.10;70.02;100559.06;5031271;28;20033;-80
2022/04/09 01:24:08;;;;;;;5.80;4.15;;;;;;;16.07;70.15;100554.63;5013810;28;20091;-80
2022/04/09 01:26:34;;;;;;;4.90;3.83;;;;;;;16.11;70.07;100547.69;5032839;28;20045;-80
2022/04/09 01:29:00;;;;;;;5.72;4.10;;;;;;;16.05;70.03;100545.78;5013847;28;20594;-81
2022/04/09 01:31:26;;;;;;;5.95;4.25;;;;;;;16.10;69.91;100556.44;5013558;28;20022;-80
2022/04/09 01:33:51;;;;;;;5.13;4.10;;;;;;;16.09;69.97;100555.56;5030736;28;20057;-80
2022/04/09 01:36:17;;;;;;;5.32;3.97;;;;;;;16.08;69.96;100559.03;5037764;28;20082;-80
2022/04/09 01:38:43;;;;;;;6.05;3.85;;;;;;;16.02;69.96;100540.41;5050960;28;20056;-80
2022/04/09 01:41:08;;;;;;;5.63;4.10;;;;;;;16.08;69.96;100552.00;5042600;28;20079;-80
2022/04/09 01:43:34;;;;;;;5.50;4.53;;;;;;;15.96;69.88;100533.25;5041315;28;20725;-80
2022/04/09 01:46:00;;;;;;;5.43;3.88;;;;;;;16.08;69.91;100553.75;5051002;28;20090;-80
2022/04/09 01:48:26;;;;;;;4.30;3.78;;;;;;;16.07;69.93;100552.88;5050727;28;20036;-80
2022/04/09 01:50:51;;;;;;;6.57;4.22;;;;;;;16.07;70.02;100549.34;5049902;28;20033;-80
2022/04/09 01:53:18;;;;;;;5.45;4.10;;;;;;;16.07;69.88;100547.59;5050984;28;20037;-80
2022/04/09 01:55:44;;;;;;;5.07;3.78;;;;;;;16.05;69.92;100554.56;5050632;28;20025;-80
2022/04/09 01:58:10;;;;;;;4.80;3.80;;;;;;;16.01;69.92;100543.91;5050701;28;20044;-79
2022/04/09 02:00:35;;;;;;;5.57;3.75;;;;;;;16.03;69.95;100548.38;5049784;28;20128;-80
2022/04/09 02:03:01;;;;;;;5.13;3.97;;;;;;;16.03;69.98;100552.75;5050875;28;20030;-80
2022/04/09 02:05:26;;;;;;;5.65;3.97;;;;;;;16.05;69.88;100546.66;5050302;28;20443;-80
2022/04/09 02:07:52;;;;;;;5.80;4.18;;;;;;;16.07;69.97;100554.63;5050624;28;20028;-80
2022/04/09 02:10:18;;;;;;;4.03;3.58;;;;;;;16.04;69.75;100541.34;5032950;28;20509;-80
2022/04/09 02:12:44;;;;;;;;;;;;;;;16.09;69.83;100550.28;5051066;28;20159;-80
2022/04/09 02:15:12;;;;;;;5.85;3.80;;;;;;;15.99;69.77;100535.97;5032907;28;19978;-80
2022/04/09 02:17:39;;;;;;;4.20;3.53;;;;;;;16.04;69.95;100559.78;5050676;28;20025;-80
2022/04/09 02:20:09;;;;;;;4.07;3.45;;;;;;;16.03;69.96;100556.28;5050068;28;20045;-81
2022/04/09 02:22:39;;;;;;;4.85;3.63;;;;;;;16.02;70.02;100548.31;5050557;28;20036;-81
2022/04/09 02:25:07;;;;;;;4.63;3.50;;;;;;;16.04;69.78;100546.63;5050747;28;20025;-80
2022/04/09 02:27:34;;;;;;;5.22;3.90;;;;;;;15.93;69.84;100519.97;5036346;28;20029;-80
2022/04/09 02:30:01;;;;;;;4.35;3.53;;;;;;;16.03;69.81;100537.84;5054054;28;20021;-80
2022/04/09 02:32:26;;;;;;;6.00;4.07;;;;;;;16.04;69.70;100536.09;5053809;28;20490;-80
2022/04/09 02:34:53;;;;;;;5.47;4.20;;;;;;;16.03;69.78;100531.69;5054075;28;20141;-81
2022/04/09 02:37:20;;;;;;;5.68;3.67;;;;;;;16.02;69.76;100528.16;5054126;28;20110;-81
2022/04/09 02:39:45;;;;;;;6.03;3.92;;;;;;;16.01;69.91;100525.47;5053860;28;20083;-80
2022/04/09 02:42:12;;;;;;;4.50;3.50;;;;;;;15.98;69.95;100523.66;5035876;28;20029;-80
2022/04/09 02:44:39;;;;;;;4.97;3.67;;;;;;;16.02;69.87;100536.06;5051451;28;20044;-79
2022/04/09 02:47:05;;;;;;;4.82;3.80;;;;;;;16.02;69.84;100533.44;5042331;28;20021;-81
2022/04/09 02:49:30;;;;;;;4.10;3.55;;;;;;;16.02;69.93;100528.16;5050683;28;20486;-80
2022/04/09 02:51:56;;;;;;;4.28;3.33;;;;;;;16.02;69.84;100532.50;5044718;28;20025;-80
2022/04/09 02:54:21;;;;;;;4.32;3.72;;;;;;;16.03;69.99;100534.31;5033842;28;20033;-80
2022/04/09 02:56:47;;;;;;;3.95;3.42;;;;;;;16.00;69.79;100524.59;5045408;28;20060;-80
2022/04/09 02:59:13;;;;;;;4.32;3.45;;;;;;;15.94;69.79;100518.22;5053831;28;20866;-80
2022/04/09 03:01:41;;;;;;;4.57;3.45;;;;;;;16.01;69.64;100522.84;5053701;28;20036;-80
2022/04/09 03:04:07;;;;;;;3.80;3.30;;;;;;;16.01;69.78;100517.56;5053637;28;20482;-81
2022/04/09 03:06:32;;;;;;;3.80;3.15;;;;;;;16.00;69.82;100518.41;5053596;28;20039;-80
2022/04/09 03:08:59;;;;;;;4.65;3.50;;;;;;;15.98;69.92;100507.84;5041650;28;20037;-81
2022/04/09 03:11:24;;;;;;;4.28;3.58;;;;;;;15.99;69.87;100507.00;5033357;28;20458;-81
2022/04/09 03:13:50;;;;;;;3.92;3.47;;;;;;;15.98;69.75;100506.94;5033511;28;20088;-80
2022/04/09 03:16:15;;;;;;;5.10;3.53;;;;;;;15.98;69.64;100513.13;5033261;28;20029;-81
2022/04/09 03:18:41;;;;;;;4.95;3.65;;;;;;;15.99;69.57;100514.00;5033026;28;20598;-80
2022/04/09 03:21:07;;;;;;;4.38;3.25;;;;;;;15.94;69.86;100505.06;5015485;28;20120;-80
2022/04/09 03:23:33;;;;;;;4.35;3.55;;;;;;;15.98;69.73;100514.84;5033179;28;20112;-80
2022/04/09 03:25:59;;;;;;;3.65;3.13;;;;;;;15.87;69.68;100491.75;5032944;28;20025;-81
2022/04/09 03:28:24;;;;;;;4.95;3.78;;;;;;;15.98;69.61;100510.50;5033211;28;20022;-81
2022/04/09 03:30:50;;;;;;;4.25;3.47;;;;;;;15.98;69.74;100506.94;5033138;28;20033;-80
2022/04/09 03:33:16;;;;;;;3.85;3.10;;;;;;;15.95;69.54;100499.84;5029011;28;20170;-80
2022/04/09 03:35:42;;;;;;;3.70;2.90;;;;;;;15.92;69.63;100486.63;5034970;28;20251;-80
2022/04/09 03:38:11;;;;;;;4.25;3.40;;;;;;;15.96;69.70;100495.47;5050720;28;20040;-80
2022/04/09 03:40:40;;;;;;;4.35;3.33;;;;;;;15.96;69.56;100495.47;5052762;28;20029;-80
2022/04/09 03:43:06;;;;;;;3.95;3.45;;;;;;;15.89;69.62;100478.59;5038717;28;20108;-80
2022/04/09 03:45:32;;;;;;;4.32;3.42;;;;;;;15.81;69.75;100469.59;5042582;28;20183;-80
2022/04/09 03:47:57;;;;;;;4.22;3.03;;;;;;;15.76;69.52;100458.06;5041158;28;20033;-80
2022/04/09 03:50:23;;;;;;;3.90;3.08;;;;;;;15.90;69.46;100475.16;5044575;28;20456;-80
2022/04/09 03:52:49;;;;;;;4.68;3.67;;;;;;;15.91;69.68;100478.66;5032634;28;20553;-80
2022/04/09 03:55:15;;;;;;;3.83;3.33;;;;;;;15.93;69.51;100488.38;5047499;28;20037;-80
2022/04/09 03:57:41;;;;;;;3.53;3.15;;;;;;;15.95;69.55;100491.06;5042166;28;20148;-81
2022/04/09 04:00:11;;;;;;;4.68;3.40;;;;;;;15.94;69.46;100487.53;5041345;28;20108;-79
2022/04/09 04:02:36;;;;;;;3.90;3.30;;;;;;;15.88;69.66;100480.34;5050673;28;20167;-81
2022/04/09 04:05:03;;;;;;;4.07;3.05;;;;;;;15.91;69.68;100482.19;5051605;28;20104;-80
2022/04/09 04:07:30;;;;;;;3.22;2.78;;;;;;;15.86;69.37;100482.06;5035827;28;20025;-80
2022/04/09 04:09:56;;;;;;;3.58;3.05;;;;;;;15.91;69.62;100487.44;5052185;28;20044;-81
2022/04/09 04:12:21;;;;;;;4.32;3.25;;;;;;;15.93;69.50;100490.13;5044815;28;20021;-80
2022/04/09 04:14:47;;;;;;;4.22;3.25;;;;;;;15.85;69.52;100482.94;5035747;28;20029;-80
2022/04/09 04:17:12;;;;;;;4.53;3.50;;;;;;;15.91;69.50;100492.72;5050201;28;20047;-80
2022/04/09 04:19:39;;;;;;;3.22;2.83;;;;;;;15.91;69.55;100497.97;5042775;28;20144;-80
2022/04/09 04:22:05;;;;;;;;;;;;;;;15.93;69.48;100504.19;5047884;28;20018;-80
2022/04/09 04:24:30;;;;;;;3.97;3.10;;;;;;;15.83;69.60;100500.41;5015491;28;19913;-80
2022/04/09 04:26:56;;;;;;;4.10;3.30;;;;;;;15.90;69.58;100503.22;5035320;28;20114;-80
2022/04/09 04:29:22;;;;;;;4.57;3.35;;;;;;;15.87;69.79;100488.22;5052268;28;20032;-80
2022/04/09 04:31:47;;;;;;;3.63;2.78;;;;;;;15.90;69.58;100495.31;5029537;28;20493;-80
2022/04/09 04:34:13;;;;;;;3.45;2.85;;;;;;;15.84;69.46;100482.88;5019485;28;20036;-80
2022/04/09 04:36:39;;;;;;;4.15;3.10;;;;;;;15.79;69.49;100477.47;5042315;28;20052;-80
2022/04/09 04:39:04;;;;;;;3.30;2.90;;;;;;;15.88;69.52;100498.78;5044090;28;20036;-80
2022/04/09 04:41:30;;;;;;;4.05;2.90;;;;;;;15.87;69.58;100491.75;5040473;28;20047;-80
2022/04/09 04:43:55;;;;;;;3.63;3.10;;;;;;;15.80;69.60;100481.88;5041159;28;20082;-81
2022/04/09 04:46:21;;;;;;;3.53;2.90;;;;;;;15.88;69.52;100495.28;5042709;28;20473;-80
2022/04/09 04:48:47;;;;;;;3.10;2.80;;;;;;;15.85;69.66;100493.44;5031958;28;20414;-80
2022/04/09 04:51:13;;;;;;;3.78;2.83;;;;;;;15.84;69.56;100488.13;5043415;28;20021;-80
2022/04/09 04:53:39;;;;;;;3.97;2.85;;;;;;;15.87;69.64;100490.84;5035720;28;20040;-81
2022/04/09 04:56:04;;;;;;;3.42;2.97;;;;;;;15.85;69.80;100492.53;5031644;28;20025;-81
2022/04/09 04:58:30;;;;;;;4.72;2.78;;;;;;;15.86;69.47;100497.84;5047797;28;20037;-81
2022/04/09 05:00:56;;;;;;;3.20;2.80;;;;;;;15.81;69.63;100502.13;5033822;28;20033;-81
2022/04/09 05:03:22;;;;;;;3.95;2.83;;;;;;;15.82;69.53;100497.72;5041499;28;20085;-81
2022/04/09 05:05:48;;;;;;;3.88;3.00;;;;;;;15.80;69.54;100495.03;5050727;28;20025;-79
2022/04/09 05:08:13;;;;;;;3.30;2.80;;;;;;;15.72;69.70;100478.13;5044227;28;20039;-79
2022/04/09 05:10:39;;;;;;;3.65;2.97;;;;;;;15.77;69.50;100487.06;5050083;28;20471;-81
2022/04/09 05:13:05;;;;;;;3.65;2.80;;;;;;;15.79;69.34;100490.66;5040206;28;20105;-81
2022/04/09 05:15:31;;;;;;;3.83;2.60;;;;;;;15.73;69.58;100476.41;5031353;28;20068;-81
2022/04/09 05:17:57;;;;;;;;;;;;;;;15.86;69.60;100489.97;5043607;28;20040;-81
2022/04/09 05:20:23;;;;;;;3.67;2.53;;;;;;;15.83;69.59;100496.88;5049142;28;19924;-81
2022/04/09 05:22:48;;;;;;;3.33;2.70;;;;;;;15.81;69.51;100498.56;5043238;28;20025;-80
2022/04/09 05:25:18;;;;;;;3.53;3.03;;;;;;;15.82;69.49;100492.47;5047489;28;20021;-81
2022/04/09 05:27:44;;;;;;;3.47;2.55;;;;;;;15.79;69.64;100485.38;5048209;28;20029;-81
2022/04/09 05:30:10;;;;;;;2.97;2.60;;;;;;;15.71;69.57;100468.44;5050088;28;20075;-81
2022/04/09 05:32:36;;;;;;;3.20;2.60;;;;;;;15.78;69.86;100477.44;5029760;28;20033;-81
2022/04/09 05:35:07;;;;;;;3.45;3.00;;;;;;;15.73;69.63;100476.41;5046117;28;20029;-80
2022/04/09 05:37:32;;;;;;;3.85;2.78;;;;;;;15.74;69.59;100478.19;5023437;28;20043;-82
2022/04/09 05:39:58;;;;;;;2.88;2.58;;;;;;;15.73;69.61;100482.56;5044637;28;20025;-81
2022/04/09 05:42:25;;;;;;;3.85;2.88;;;;;;;15.78;69.53;100501.13;5039448;28;20041;-81
2022/04/09 05:44:54;;;;;;;3.78;2.88;;;;;;;15.79;69.61;100495.91;5028101;28;20036;-81
2022/04/09 05:47:20;;;;;;;3.75;2.63;;;;;;;15.74;69.43;100478.19;5038938;28;20128;-81
2022/04/09 05:49:46;;;;;;;3.20;2.70;;;;;;;15.74;69.46;100488.72;5032362;28;20108;-80
2022/04/09 05:52:12;;;;;;;3.65;2.85;;;;;;;15.78;69.45;100487.97;5031505;28;20048;-80
2022/04/09 05:54:38;;;;;;;4.00;2.83;;;;;;;15.73;69.37;100471.16;5045671;28;20033;-80
2022/04/09 05:57:05;;;;;;;3.22;2.78;;;;;;;15.73;69.15;100471.16;5044531;28;20415;-80
2022/04/09 05:59:31;;;;;;;3.83;2.90;;;;;;;15.80;69.25;100484.50;5043394;28;20140;-80
2022/04/09 06:01:57;;;;;;;3.38;2.70;;;;;;;15.74;69.25;100475.56;5043272;28;20024;-79
2022/04/09 06:04:22;;;;;;;4.65;3.00;;;;;;;15.79;69.14;100481.84;5035039;28;20038;-80
2022/04/09 06:06:49;;;;;;;4.63;2.78;;;;;;;15.82;68.61;100484.56;5046380;28;20025;-80
2022/04/09 06:09:15;;;;;;;4.22;3.08;;;;;;;15.83;68.81;100495.16;5047518;28;20060;-80
2022/04/09 06:11:41;;;;;;;4.15;3.00;;;;;;;15.81;68.67;100496.84;5043112;28;20483;-80
2022/04/09 06:14:08;;;;;;;5.85;3.33;;;;;;;15.78;68.34;100496.75;5019935;28;20075;-80
2022/04/09 06:16:40;;;;;;;3.35;2.80;;;;;;;15.82;68.37;100489.84;5043191;28;20082;-80
2022/04/09 06:19:06;;;;;;;3.97;2.80;;;;;;;15.80;68.58;100491.53;5048386;28;20025;-80
2022/04/09 06:21:33;;;;;;;3.10;2.70;;;;;;;15.79;68.46;100479.19;5053233;28;20105;-80
2022/04/09 06:24:00;;;;;;;4.63;3.10;;;;;;;15.81;68.62;100502.13;5033114;28;20021;-81
2022/04/09 06:26:26;;;;;;;5.50;2.80;;;;;;;15.80;68.40;100495.03;5052541;28;20035;-81
2022/04/09 06:28:51;;;;;;;4.07;2.63;;;;;;;15.73;68.10;100492.22;5052694;28;20032;-80
2022/04/09 06:31:17;;;;;;;4.40;3.00;;;;;;;15.75;67.75;100485.25;5046396;28;20071;-80
2022/04/09 06:33:42;;;;;;;5.90;3.47;;;;;;;15.79;67.59;100480.13;5049979;28;20060;-80
2022/04/09 06:36:11;;;;;;;4.93;2.90;;;;;;;15.72;67.74;100472.00;5045477;28;20025;-80
2022/04/09 06:38:37;;;;;;;7.63;2.85;;;;;;;15.69;67.81;100478.03;5031593;28;20032;-80
2022/04/09 06:41:03;;;;;;;5.35;3.13;;;;;;;15.59;67.89;100452.28;5051161;28;20090;-80
2022/04/09 06:43:30;;;;;;;6.25;2.90;;;;;;;15.76;67.45;100480.00;5053458;28;20450;-80
2022/04/09 06:45:56;;;;;;;4.30;2.90;;;;;;;15.67;67.65;100483.25;5053473;28;20112;-79
2022/04/09 06:48:22;;;;;;;6.78;3.10;;;;;;;15.68;67.63;100469.25;5044793;28;20033;-78
2022/04/09 06:50:48;;;;;;;4.10;3.00;;;;;;;15.76;67.25;100466.84;5033955;28;20032;-79
2022/04/09 06:53:13;;;;;;;8.77;2.95;;;;;;;15.78;67.46;100456.38;5053536;28;20118;-79
2022/04/09 06:55:40;;;;;;;5.13;2.92;;;;;;;15.81;67.08;100459.06;5053416;28;20036;-78
2022/04/09 06:58:05;;;;;;;4.05;3.03;;;;;;;15.80;67.24;100454.66;5052785;28;20037;-79
2022/04/09 07:00:33;;;;;;;4.60;2.78;;;;;;;15.84;66.92;100454.78;5047453;28;20033;-78
2022/04/09 07:03:00;;;;;;;4.72;3.00;;;;;;;15.74;66.88;100443.97;5045750;28;20037;-79
2022/04/09 07:05:27;;;;;;;5.30;3.00;;;;;;;15.76;67.13;100463.34;5032106;28;20033;-79
2022/04/09 07:07:53;;;;;;;4.10;3.10;;;;;;;15.85;66.96;100469.75;5040893;28;20454;-79
2022/04/09 07:10:18;;;;;;;3.72;3.13;;;;;;;15.85;66.32;100467.13;5024870;28;20017;-78
2022/04/09 07:12:44;;;;;;;5.10;3.10;;;;;;;15.80;66.45;100462.56;5049187;28;20041;-78
2022/04/09 07:15:10;;;;;;;4.97;2.65;;;;;;;15.86;66.52;100463.63;5052749;28;20021;-78
2022/04/09 07:17:41;;;;;;;4.05;2.55;;;;;;;15.82;66.73;100472.28;5036866;28;20068;-79
2022/04/09 07:20:08;;;;;;;3.58;2.63;;;;;;;15.80;66.49;100462.56;5042440;28;20040;-79
2022/04/09 07:22:35;;;;;;;4.10;3.03;;;;;;;15.91;66.66;100471.66;5053027;28;20032;-78
2022/04/09 07:25:01;;;;;;;4.43;2.95;;;;;;;15.91;66.59;100479.53;5052470;28;20037;-79
2022/04/09 07:27:37;;;;;;;4.20;2.75;;;;;;;15.80;66.06;100455.56;5038878;28;20035;-79
2022/04/09 07:30:05;;;;;;;4.82;2.80;;;;;;;15.93;65.89;100477.84;5032990;28;20037;-78
2022/04/09 07:32:31;;;;;;;5.65;2.83;;;;;;;15.88;66.34;100474.22;5052354;28;20021;-78
2022/04/09 07:34:57;;;;;;;2.97;2.67;;;;;;;15.87;65.95;100470.69;5049569;28;20033;-78
2022/04/09 07:37:22;;;;;;;3.88;2.75;;;;;;;15.92;65.34;100470.81;5033003;28;20509;-79
2022/04/09 07:39:48;;;;;;;4.18;3.17;;;;;;;15.84;65.88;100460.06;5030563;28;20033;-79
2022/04/09 07:42:14;;;;;;;4.22;2.78;;;;;;;15.79;66.61;100451.16;5040035;28;20124;-78
2022/04/09 07:44:39;;;;;;;5.00;2.90;;;;;;;15.78;67.11;100472.16;5032810;28;20021;-78
2022/04/09 07:47:05;;;;;;;3.85;2.65;;;;;;;15.77;67.21;100465.09;5036949;28;20021;-78
2022/04/09 07:49:31;;;;;;;3.90;2.50;;;;;;;15.67;67.63;100464.81;5052588;28;20525;-78
2022/04/09 07:51:56;;;;;;;4.15;2.58;;;;;;;15.70;67.43;100461.38;5051989;28;20025;-78
2022/04/09 07:54:24;;;;;;;4.03;2.35;;;;;;;15.74;67.27;100452.75;5036734;28;20488;-78
2022/04/09 07:56:50;;;;;;;3.17;2.70;;;;;;;15.77;66.92;100457.19;5039204;28;20711;-78
2022/04/09 07:59:15;;;;;;;;;;;;;;;15.73;67.45;100458.88;5051256;28;20535;-79
2022/04/09 08:01:41;;;;;;;4.88;2.63;;;;;;;15.73;67.47;100456.25;5048378;28;19972;-79
2022/04/09 08:04:07;;;;;;;4.55;2.80;;;;;;;15.76;67.53;100469.47;5046031;28;20029;-78
2022/04/09 08:06:32;;;;;;;3.88;2.53;;;;;;;15.73;67.88;100452.72;5047985;28;20036;-78
2022/04/09 08:08:58;;;;;;;3.50;2.63;;;;;;;15.74;67.97;100459.75;5049675;28;20021;-78
2022/04/09 08:11:24;;;;;;;2.80;2.30;;;;;;;15.73;67.80;100439.56;5048302;28;20036;-78
2022/04/09 08:13:50;;;;;;;4.63;2.58;;;;;;;15.75;68.08;100433.50;5047668;28;20025;-78
2022/04/09 08:16:15;;;;;;;3.88;2.53;;;;;;;15.77;68.17;100439.69;5035817;28;20086;-78
2022/04/09 08:18:41;;;;;;;4.22;2.13;;;;;;;15.80;67.91;100431.84;5040544;28;20044;-78
2022/04/09 08:21:07;;;;;;;4.88;2.33;;;;;;;15.75;68.08;100432.59;5048742;28;20444;-78
2022/04/09 08:23:32;;;;;;;3.75;2.60;;;;;;;15.76;68.25;100422.09;5050695;28;20032;-78
2022/04/09 08:25:58;;;;;;;4.88;2.30;;;;;;;15.91;66.43;100434.78;5051822;28;20063;-78
2022/04/09 08:28:26;;;;;;;5.15;2.88;;;;;;;15.80;65.91;100405.53;5020291;28;20581;-79
2022/04/09 08:30:52;;;;;;;4.60;2.30;;;;;;;15.78;66.51;100430.03;5051112;28;20024;-78
2022/04/09 08:33:18;;;;;;;4.00;2.50;;;;;;;15.72;66.91;100437.78;5051643;28;20032;-78
2022/04/09 08:35:43;;;;;;;3.50;2.60;;;;;;;15.65;67.26;100418.25;5051584;28;20025;-78
2022/04/09 08:38:10;;;;;;;3.53;2.70;;;;;;;15.62;67.40;100426.97;5044121;28;20040;-79
2022/04/09 08:40:38;;;;;;;;;;;;;;;15.68;67.43;100440.28;5049098;28;20033;-78
2022/04/09 08:43:05;;;;;;;3.67;2.45;;;;;;;15.71;66.83;100422.81;5049612;28;20301;-78
2022/04/09 08:45:35;;;;;;;4.10;2.67;;;;;;;15.86;66.00;100433.78;5051211;28;20033;-78
2022/04/09 08:48:02;;;;;;;3.33;2.30;;;;;;;15.84;65.35;100425.81;5047679;28;20091;-79
2022/04/09 08:50:28;;;;;;;3.72;2.20;;;;;;;15.90;65.21;100432.13;5013964;28;20031;-79
2022/04/09 08:52:53;;;;;;;;;;;;;;;15.96;64.94;100440.16;5030934;28;20025;-78
2022/04/09 08:55:19;;;;;;;3.72;2.40;;;;;;;15.96;64.65;100441.09;5031661;28;19924;-78
2022/04/09 08:57:46;;;;;;;3.45;2.47;;;;;;;15.98;64.46;100431.47;5031456;28;20421;-79
2022/04/09 09:00:13;;;;;;;3.92;2.08;;;;;;;15.94;64.38;100426.97;5040108;28;20398;-78
2022/04/09 09:02:54;;;;;;;5.00;2.47;;;;;;;16.03;63.99;100428.97;5033236;28;20036;-78
2022/04/09 09:05:43;;;;;;;4.43;2.20;;;;;;;16.03;63.95;100428.97;5051217;28;20021;-79
2022/04/09 09:08:10;;;;;;;2.15;1.95;;;;;;;15.98;64.90;100417.41;5051138;28;20025;-78
2022/04/09 09:10:37;;;;;;;3.97;2.40;;;;;;;15.96;65.67;100413.81;5050883;28;20079;-78
2022/04/09 09:13:06;;;;;;;2.90;2.60;;;;;;;15.92;66.34;100411.97;5051079;28;20036;-78
2022/04/09 09:15:53;;;;;;;5.30;2.38;;;;;;;15.87;66.93;100411.84;5050714;28;20024;-78
2022/04/09 09:18:23;;;;;;;2.88;2.20;;;;;;;15.96;65.60;100404.22;5050357;28;20059;-78
2022/04/09 09:20:58;;;;;;;3.42;2.40;;;;;;;16.01;65.21;100399.94;5049806;28;20124;-78
2022/04/09 09:23:25;;;;;;;2.38;2.13;;;;;;;16.07;64.86;100407.13;5029654;28;20032;-79
2022/04/09 09:25:52;;;;;;;3.25;2.35;;;;;;;16.00;64.55;100389.34;5049931;28;20112;-78
2022/04/09 09:28:31;;;;;;;3.90;2.20;;;;;;;16.07;64.30;100393.94;5013210;28;20040;-79
2022/04/09 09:30:58;;;;;;;2.83;2.20;;;;;;;16.07;64.15;100394.84;5031382;28;20032;-78
2022/04/09 09:33:25;;;;;;;3.15;2.20;;;;;;;16.12;63.91;100397.56;5013663;28;20414;-78
2022/04/09 09:35:55;;;;;;;3.70;2.50;;;;;;;16.16;63.56;100396.81;5034100;28;20045;-78
2022/04/09 09:38:28;;;;;;;3.40;2.28;;;;;;;16.19;63.53;100389.00;5035081;28;20473;-78
2022/04/09 09:40:56;;;;;;;4.15;2.40;;;;;;;16.20;63.55;100389.88;5034892;28;20029;-77
2022/04/09 09:43:23;;;;;;;3.95;2.22;;;;;;;16.14;64.39;100384.47;5034905;28;20025;-79
2022/04/09 09:45:50;;;;;;;2.80;2.20;;;;;;;16.08;65.67;100385.19;5035039;28;20433;-79
2022/04/09 09:48:24;;;;;;;2.78;2.10;;;;;;;16.00;66.52;100386.72;5034953;28;20035;-78
2022/04/09 09:50:51;;;;;;;2.50;1.98;;;;;;;15.96;66.87;100382.22;5034854;28;20105;-79
2022/04/09 09:53:33;;;;;;;2.63;2.05;;;;;;;16.15;64.69;100381.88;5037136;28;20022;-81
2022/04/09 09:56:00;;;;;;;4.68;2.80;;;;;;;16.18;64.74;100374.03;5053046;28;20056;-78
2022/04/09 09:58:27;;;;;;;5.38;2.60;;;;;;;16.26;65.34;100374.22;5025456;28;20094;-78
2022/04/09 10:00:57;;;;;;;3.35;2.58;;;;;;;16.32;65.51;100374.38;5054489;28;20024;-79
2022/04/09 10:03:23;;;;;;;3.38;2.70;;;;;;;16.26;65.90;100368.97;5040804;28;20624;-77
2022/04/09 10:05:50;;;;;;;;;;;;;;;16.36;65.72;100359.50;5035171;28;20033;-79
2022/04/09 10:08:17;;;;;;;4.00;2.65;;;;;;;16.33;66.16;100364.72;5034149;28;19913;-78
2022/04/09 10:10:46;;;;;;;5.40;2.80;;;;;;;16.31;66.42;100354.13;5034712;28;20038;-78
2022/04/09 10:13:14;;;;;;;5.03;2.67;;;;;;;16.36;66.37;100352.53;5034564;28;20025;-78
2022/04/09 10:15:41;;;;;;;5.53;2.72;;;;;;;16.37;66.46;100361.31;5016969;28;20540;-78
2022/04/09 10:18:08;;;;;;;5.80;2.80;;;;;;;16.41;66.32;100357.91;5016973;28;20100;-77
2022/04/09 10:20:34;;;;;;;4.75;2.83;;;;;;;16.39;66.50;100357.84;5035987;28;20037;-78
2022/04/09 10:23:02;;;;;;;4.57;2.75;;;;;;;16.40;66.65;100348.19;5040210;28;20041;-78
2022/04/09 10:25:30;;;;;;;7.53;3.10;;;;;;;16.41;66.72;100339.44;5030934;28;20032;-78
2022/04/09 10:28:00;;;;;;;5.15;3.10;;;;;;;16.40;66.91;100343.84;5036736;28;20020;-77
2022/04/09 10:30:28;;;;;;;6.85;3.00;;;;;;;16.36;67.08;100333.16;5054294;28;20405;-77
2022/04/09 10:32:56;;;;;;;8.77;2.92;;;;;;;16.43;66.92;100340.38;5054136;28;20029;-78
2022/04/09 10:35:38;;;;;;;8.70;2.88;;;;;;;16.39;67.00;100331.50;5053989;28;20100;-77
2022/04/09 10:38:07;;;;;;;6.15;3.03;;;;;;;16.45;66.91;100341.31;5054158;28;20061;-77
2022/04/09 10:40:49;;;;;;;8.48;3.30;;;;;;;16.48;66.76;100336.09;5045747;28;20029;-76
2022/04/09 10:43:26;;;;;;;6.07;2.97;;;;;;;16.44;67.44;100319.31;5034215;28;20029;-77
2022/04/09 10:46:01;;;;;;;9.55;3.45;;;;;;;16.41;68.22;100329.78;5039029;28;20044;-77
2022/04/09 10:48:32;;;;;;;10.15;3.33;;;;;;;16.37;68.12;100314.75;5054139;28;20032;-77
2022/04/09 10:51:04;;;;;;;7.45;3.33;;;;;;;16.41;68.64;100319.25;5054048;28;20116;-77
2022/04/09 10:53:32;;;;;;;11.32;3.55;;;;;;;16.38;69.38;100318.28;5040683;28;20410;-77
2022/04/09 10:56:32;;;;;;;9.32;3.45;;;;;;;16.38;70.12;100326.19;5033972;28;20124;-77
2022/04/09 10:58:59;;;;;;;9.25;3.60;;;;;;;16.41;69.67;100321.00;5041910;28;20075;-78
2022/04/09 11:01:47;;;;;;;7.78;3.63;;;;;;;16.47;69.25;100308.84;5053367;28;20457;-78
2022/04/09 11:07:16;;;;;;;10.07;3.70;;;;;;;16.40;70.02;100304.31;5046477;28;20043;-78
2022/04/09 11:09:57;;;;;;;9.13;3.83;;;;;;;16.44;70.32;100299.97;5044323;28;20502;-78
2022/04/09 11:12:31;;;;;;;11.75;3.88;;;;;;;16.42;70.17;100291.16;5041160;28;20029;-77
2022/04/09 11:15:07;;;;;;;9.07;4.03;;;;;;;16.41;70.76;100292.91;5053149;28;20051;-78
2022/04/09 11:17:35;;;;;;;8.98;3.78;;;;;;;16.37;71.05;100287.53;5047600;28;20048;-77
2022/04/09 11:20:09;;;;;;;13.70;3.88;;;;;;;16.46;70.53;100283.34;5036727;28;20054;-78
2022/04/09 11:22:37;;;;;;;10.48;3.65;;;;;;;16.40;70.26;100262.16;5041260;28;20051;-77
2022/04/09 11:25:24;;;;;;;10.48;4.22;;;;;;;16.43;70.80;100272.75;5033174;28;20032;-79
2022/04/09 11:28:04;;;;;;;12.90;4.45;;;;;;;16.52;70.65;100271.16;5032739;28;20042;-78
2022/04/09 11:30:30;;;;;;;14.07;4.38;;;;;;;16.52;70.36;100265.91;5033404;28;20091;-78